Airfield :
LOGIN :

Register | Disclaimer

   EN    FR    IT 

 










Legend :    VFR   Marginal VFR   IFR   Intensive IFR   Very Intensive IFR
Visi :
Ceiling :
>= 8 km
>= 3000ft
5 to 8 km
1000 to 3000 ft
1500m to 5 km
500 to 1000 ft
800 to 1500m
200 to 500 ft
< 800m
< 200 ft
Symbols :   Thunderstorms  Fog  Heavy snow  Heavy precipitations  Wind > 20 kt
SIGMETs :     Misc.  Thunderstorms  Icing  Turbulence  Mountain Waves  Volcanic Ashes







- Airport Elevation : 1 ft
- Download approach charts


EGCK - Caernarfon

CURRENT METAR :
  • 201120Z 18018KT 9999 -RA SCT009 BKN018 09/08 Q1014

EXPIRED METARs :
  • 201050Z 18018KT 8000 -RA BKN010 BKN018 09/08 Q1013
  • 201020Z 18019KT 9000 -RA BKN012 BKN023 09/08 Q1013
  • 200950Z 18020KT 9999 -RA BKN013 09/07 Q1013
  • 200920Z 18018G28KT 9999 BKN013 09/07 Q1013
  • 200850Z AUTO 18018KT 9999 OVC011/// 09/07 Q1013
  • 200820Z AUTO 18019KT 9999 OVC011/// 09/07 Q1013

TAF TAF EGCK
Valid from the 20 at 09:00 until the 20 at 18:00 UTC


200758Z 2009/2018 18015G25KT 9999 SCT030
TEMPO 2009/2018 6000 RA BKN009
PROB30
TEMPO 2009/2018 19025G35KT BKN004
No reported NOTAMs for that airfield.
1 SIGMET reported for the London FIR (EGTT) :
 
Severe mountain waves
EGTT SIGMET 02 VALID 200930/201330 EGRR
EGTT LONDON FIR SEV MTW FCST WI N5500 E00006 - N5430 E00009 - N5224 W00209 - N5222 W00327 - N5355 W00530 - N5500 W00530 - N5500 E00006 FL030/250 STNR NC=



MET'MAP, your aeronautical weather chart ! - Copyright ORBIFLY December 2007 - Disclaimer

ORBIFLY MET'MAP TEAM :

Programming & Development : Alexandra Zaïnal
Concept & Development : Baudouin d'Aumeries
Co-Development & Prog : Marc-Olivier Méhu
Technical & hardware support : Manuel Goepfert

Contact : metmap@orbifly.com




SOURCES & CREDITS :

   NOAA